createdAt,value
2019-04-21T00:00:55.426Z,1008.97
2019-04-21T00:01:53.882Z,1009.05
2019-04-21T00:02:52.043Z,1009.04
2019-04-21T00:03:55.575Z,1009.06
2019-04-21T00:05:06.193Z,1009.03
2019-04-21T00:06:12.012Z,1008.98
2019-04-21T00:07:11.736Z,1008.98
2019-04-21T00:08:22.875Z,1008.99
2019-04-21T00:09:19.194Z,1008.94
2019-04-21T00:10:16.806Z,1008.96
2019-04-21T00:11:17.189Z,1008.94
2019-04-21T00:12:17.008Z,1008.94
2019-04-21T00:13:07.828Z,1008.94
2019-04-21T00:14:07.745Z,1008.92
2019-04-21T00:15:01.918Z,1008.87
2019-04-21T00:15:57.905Z,1008.94
2019-04-21T00:16:58.033Z,1008.88
2019-04-21T00:17:57.439Z,1008.83
2019-04-21T00:19:02.581Z,1008.88
2019-04-21T00:19:55.470Z,1008.93
2019-04-21T00:20:55.175Z,1008.85
2019-04-21T00:22:01.562Z,1008.87
2019-04-21T00:23:10.190Z,1008.86
2019-04-21T00:24:04.851Z,1008.84
2019-04-21T00:25:08.668Z,1008.83
2019-04-21T00:26:05.179Z,1008.81
2019-04-21T00:27:09.681Z,1008.79
2019-04-21T00:28:15.795Z,1008.81
2019-04-21T00:29:16.570Z,1008.80
2019-04-21T00:30:14.112Z,1008.74
2019-04-21T00:31:09.852Z,1008.75
2019-04-21T00:32:06.704Z,1008.66
2019-04-21T00:32:59.950Z,1008.65
2019-04-21T00:33:53.052Z,1008.66
2019-04-21T00:34:56.283Z,1008.71
2019-04-21T00:35:59.831Z,1008.68
2019-04-21T00:37:03.010Z,1008.68
2019-04-21T00:38:15.399Z,1008.66
2019-04-21T00:39:23.277Z,1008.64
2019-04-21T00:40:16.184Z,1008.66
2019-04-21T00:41:13.747Z,1008.65
2019-04-21T00:42:11.298Z,1008.62
2019-04-21T00:43:08.969Z,1008.65
2019-04-21T00:44:07.407Z,1008.61
2019-04-21T00:45:08.128Z,1008.62
2019-04-21T00:46:02.236Z,1008.59
2019-04-21T00:47:01.787Z,1008.57
2019-04-21T00:48:18.000Z,1008.66
2019-04-21T00:49:06.191Z,1008.64
2019-04-21T00:50:12.797Z,1008.61
2019-04-21T00:51:27.173Z,1008.65
2019-04-21T00:52:25.151Z,1008.61
2019-04-21T00:53:10.462Z,1008.59
2019-04-21T00:54:19.653Z,1008.56
2019-04-21T00:55:23.098Z,1008.57
2019-04-21T00:56:16.629Z,1008.52
2019-04-21T00:57:19.603Z,1008.59
2019-04-21T00:58:20.781Z,1008.54
2019-04-21T00:59:13.612Z,1008.58
2019-04-21T01:00:15.547Z,1008.51
2019-04-21T01:01:07.439Z,1008.53
2019-04-21T01:02:09.591Z,1008.51
2019-04-21T01:03:14.432Z,1008.52
2019-04-21T01:04:10.070Z,1008.52
2019-04-21T01:05:18.594Z,1008.50
2019-04-21T01:06:16.429Z,1008.53
2019-04-21T01:07:15.721Z,1008.50
2019-04-21T01:08:13.347Z,1008.52
2019-04-21T01:09:10.804Z,1008.52
2019-04-21T01:10:07.279Z,1008.52
2019-04-21T01:11:15.627Z,1008.51
2019-04-21T01:12:12.549Z,1008.54
2019-04-21T01:13:17.177Z,1008.49
2019-04-21T01:14:17.954Z,1008.54
2019-04-21T01:15:18.505Z,1008.45
2019-04-21T01:16:13.781Z,1008.46
2019-04-21T01:17:14.556Z,1008.52
2019-04-21T01:18:11.023Z,1008.49
2019-04-21T01:19:12.008Z,1008.45
2019-04-21T01:20:06.729Z,1008.43
2019-04-21T01:20:50.920Z,1008.42
2019-04-21T01:21:49.851Z,1008.44
2019-04-21T01:22:49.869Z,1008.44
2019-04-21T01:23:50.741Z,1008.43
2019-04-21T01:25:00.055Z,1008.44
2019-04-21T01:26:06.869Z,1008.44
2019-04-21T01:27:02.357Z,1008.44
2019-04-21T01:28:05.079Z,1008.44
2019-04-21T01:29:06.998Z,1008.41
2019-04-21T01:30:14.332Z,1008.38
2019-04-21T01:31:12.428Z,1008.40
2019-04-21T01:32:19.673Z,1008.34
2019-04-21T01:33:17.765Z,1008.38
2019-04-21T01:34:08.390Z,1008.44
2019-04-21T01:35:10.151Z,1008.37
2019-04-21T01:36:12.867Z,1008.35
2019-04-21T01:37:04.108Z,1008.32
2019-04-21T01:38:19.174Z,1008.35
2019-04-21T01:39:15.012Z,1008.37
2019-04-21T01:40:16.238Z,1008.35
2019-04-21T01:41:16.058Z,1008.35
2019-04-21T01:42:08.894Z,1008.35
2019-04-21T01:43:07.623Z,1008.33
2019-04-21T01:44:19.721Z,1008.35
2019-04-21T01:45:12.798Z,1008.36
2019-04-21T01:46:09.307Z,1008.34
2019-04-21T01:47:06.054Z,1008.35
2019-04-21T01:48:05.810Z,1008.34
2019-04-21T01:49:04.421Z,1008.34
2019-04-21T01:49:59.027Z,1008.28
2019-04-21T01:51:05.362Z,1008.32
2019-04-21T01:52:30.165Z,1008.32
2019-04-21T01:53:18.788Z,1008.33
2019-04-21T01:54:14.659Z,1008.29
2019-04-21T01:55:12.646Z,1008.30
2019-04-21T01:56:11.852Z,1008.29
2019-04-21T01:57:08.546Z,1008.27
2019-04-21T01:58:02.245Z,1008.22
2019-04-21T01:59:00.629Z,1008.24
2019-04-21T02:00:00.976Z,1008.27
2019-04-21T02:01:05.279Z,1008.22
2019-04-21T02:02:11.091Z,1008.16
2019-04-21T02:03:32.624Z,1008.23
2019-04-21T02:04:14.113Z,1008.22
2019-04-21T02:05:17.487Z,1008.23
2019-04-21T02:07:13.026Z,1008.23
2019-04-21T02:08:09.712Z,1008.22
2019-04-21T02:09:10.107Z,1008.20
2019-04-21T02:10:11.141Z,1008.20
2019-04-21T02:11:17.686Z,1008.19
2019-04-21T02:12:17.270Z,1008.23
2019-04-21T02:13:09.006Z,1008.17
2019-04-21T02:14:09.942Z,1008.17
2019-04-21T02:15:17.153Z,1008.14
2019-04-21T02:16:11.283Z,1008.13
2019-04-21T02:17:14.469Z,1008.11
2019-04-21T02:18:11.947Z,1008.18
2019-04-21T02:19:08.340Z,1008.18
2019-04-21T02:20:03.747Z,1008.17
2019-04-21T02:21:00.155Z,1008.15
2019-04-21T02:22:04.881Z,1008.16
2019-04-21T02:24:23.858Z,1008.10
2019-04-21T02:25:14.022Z,1008.12
2019-04-21T02:26:09.300Z,1008.06
2019-04-21T02:27:14.959Z,1008.06
2019-04-21T02:28:12.294Z,1008.04
2019-04-21T02:29:15.520Z,1008.02
2019-04-21T02:30:18.343Z,1008.03
2019-04-21T02:31:20.638Z,1008.00
2019-04-21T02:33:32.316Z,1008.09
2019-04-21T02:34:21.806Z,1008.07
2019-04-21T02:35:30.397Z,1008.00
2019-04-21T02:36:31.000Z,1008.04
2019-04-21T02:37:40.174Z,1008.06
2019-04-21T02:38:30.696Z,1008.00
2019-04-21T02:39:23.137Z,1008.03
2019-04-21T02:40:25.491Z,1008.04
2019-04-21T02:41:22.976Z,1007.98
2019-04-21T02:42:19.980Z,1007.96
2019-04-21T02:44:26.458Z,1007.93
2019-04-21T02:45:23.587Z,1007.94
2019-04-21T02:46:23.207Z,1007.93
2019-04-21T02:47:27.550Z,1007.93
2019-04-21T02:48:26.068Z,1007.95
2019-04-21T02:49:38.146Z,1007.91
2019-04-21T02:50:26.100Z,1007.96
2019-04-21T02:51:25.586Z,1007.96
2019-04-21T02:54:48.378Z,1007.91
2019-04-21T02:55:18.104Z,1007.92
2019-04-21T02:56:24.744Z,1007.95
2019-04-21T02:57:15.643Z,1007.90
2019-04-21T02:58:32.684Z,1007.95
2019-04-21T03:00:23.832Z,1007.92
2019-04-21T03:02:27.137Z,1007.89
2019-04-21T03:03:31.612Z,1007.86
2019-04-21T03:04:18.823Z,1007.92
2019-04-21T03:06:24.938Z,1007.90
2019-04-21T03:08:27.253Z,1007.92
2019-04-21T03:09:28.052Z,1007.89
2019-04-21T03:10:26.233Z,1007.88
2019-04-21T03:11:14.763Z,1007.94
2019-04-21T03:12:20.161Z,1007.94
2019-04-21T03:13:33.618Z,1007.88
2019-04-21T03:14:33.206Z,1007.93
2019-04-21T03:15:23.381Z,1007.90
2019-04-21T03:17:23.934Z,1007.88
2019-04-21T03:18:30.252Z,1007.90
2019-04-21T03:19:30.053Z,1007.87
2019-04-21T03:22:20.992Z,1007.81
2019-04-21T03:24:18.497Z,1007.82
2019-04-21T03:25:44.846Z,1007.79
2019-04-21T03:26:29.947Z,1007.79
2019-04-21T03:27:35.217Z,1007.76
2019-04-21T03:28:22.630Z,1007.72
2019-04-21T03:29:28.864Z,1007.73
2019-04-21T03:30:53.226Z,1007.73
2019-04-21T03:31:35.444Z,1007.72
2019-04-21T03:32:51.327Z,1007.74
2019-04-21T03:36:40.089Z,1007.63
2019-04-21T03:37:23.250Z,1007.59
2019-04-21T03:38:23.577Z,1007.63
2019-04-21T03:39:24.222Z,1007.58
2019-04-21T03:41:18.796Z,1007.58
2019-04-21T03:42:27.035Z,1007.58
2019-04-21T03:43:20.453Z,1007.62
2019-04-21T03:46:23.242Z,1007.56
2019-04-21T03:47:23.529Z,1007.57
2019-04-21T03:48:23.850Z,1007.54
2019-04-21T03:50:20.447Z,1007.51
2019-04-21T03:51:23.491Z,1007.55
2019-04-21T03:52:19.460Z,1007.51
2019-04-21T03:53:18.622Z,1007.50
2019-04-21T03:54:16.264Z,1007.50
2019-04-21T03:55:41.447Z,1007.49
2019-04-21T03:56:29.529Z,1007.46
2019-04-21T03:57:44.203Z,1007.46
2019-04-21T03:59:38.464Z,1007.45
2019-04-21T04:00:33.622Z,1007.44
2019-04-21T04:02:23.932Z,1007.44
2019-04-21T04:03:42.621Z,1007.40
2019-04-21T04:04:28.402Z,1007.37
2019-04-21T04:05:20.017Z,1007.37
2019-04-21T04:06:20.845Z,1007.39
2019-04-21T04:08:31.852Z,1007.42
2019-04-21T04:09:37.502Z,1007.46
2019-04-21T04:10:34.782Z,1007.43
2019-04-21T04:11:36.024Z,1007.46
2019-04-21T04:13:30.697Z,1007.48
2019-04-21T04:14:26.672Z,1007.46
2019-04-21T04:15:20.565Z,1007.44
2019-04-21T04:16:18.853Z,1007.50
2019-04-21T04:17:24.040Z,1007.45
2019-04-21T04:18:27.968Z,1007.44
2019-04-21T04:19:22.928Z,1007.41
2019-04-21T04:21:33.305Z,1007.40
2019-04-21T04:22:19.401Z,1007.34
2019-04-21T04:23:20.241Z,1007.37
2019-04-21T04:24:22.172Z,1007.38
2019-04-21T04:26:22.430Z,1007.33
2019-04-21T04:27:35.287Z,1007.35
2019-04-21T04:28:25.398Z,1007.37
2019-04-21T04:30:21.592Z,1007.31
2019-04-21T04:31:32.061Z,1007.37
2019-04-21T04:32:25.182Z,1007.33
2019-04-21T04:33:27.928Z,1007.34
2019-04-21T04:34:21.822Z,1007.31
2019-04-21T04:35:48.996Z,1007.31
2019-04-21T04:36:43.390Z,1007.31
2019-04-21T04:38:24.534Z,1007.34
2019-04-21T04:40:21.428Z,1007.36
2019-04-21T04:41:24.928Z,1007.42
2019-04-21T04:43:11.856Z,1007.43
2019-04-21T04:43:35.068Z,1007.41
2019-04-21T04:44:24.283Z,1007.43
2019-04-21T04:45:26.581Z,1007.44
2019-04-21T04:46:22.396Z,1007.40
2019-04-21T04:47:16.695Z,1007.42
2019-04-21T04:48:19.329Z,1007.42
2019-04-21T04:49:23.664Z,1007.41
2019-04-21T04:50:15.549Z,1007.34
2019-04-21T04:51:25.239Z,1007.32
2019-04-21T04:52:27.714Z,1007.31
2019-04-21T04:53:28.675Z,1007.32
2019-04-21T04:54:36.663Z,1007.28
2019-04-21T04:55:22.110Z,1007.31
2019-04-21T04:56:18.324Z,1007.32
2019-04-21T04:57:29.087Z,1007.32
2019-04-21T04:58:18.029Z,1007.35
2019-04-21T04:59:41.465Z,1007.34
2019-04-21T05:00:28.151Z,1007.32
2019-04-21T05:03:24.393Z,1007.37
2019-04-21T05:04:27.601Z,1007.28
2019-04-21T05:06:34.827Z,1007.29
2019-04-21T05:07:21.435Z,1007.31
2019-04-21T05:09:31.583Z,1007.29
2019-04-21T05:10:20.346Z,1007.33
2019-04-21T05:11:30.855Z,1007.33
2019-04-21T05:12:15.739Z,1007.30
2019-04-21T05:13:21.272Z,1007.32
2019-04-21T05:14:18.377Z,1007.31
2019-04-21T05:15:12.749Z,1007.27
2019-04-21T05:16:24.054Z,1007.33
2019-04-21T05:18:18.976Z,1007.30
2019-04-21T05:21:23.220Z,1007.32
2019-04-21T05:23:12.122Z,1007.24
2019-04-21T05:24:07.758Z,1007.22
2019-04-21T05:25:06.961Z,1007.25
2019-04-21T05:26:05.136Z,1007.22
2019-04-21T05:27:03.140Z,1007.19
2019-04-21T05:28:04.598Z,1007.24
2019-04-21T05:29:02.072Z,1007.17
2019-04-21T05:30:00.428Z,1007.24
2019-04-21T05:31:13.054Z,1007.29
2019-04-21T05:32:13.397Z,1007.32
2019-04-21T05:33:09.173Z,1007.37
2019-04-21T05:34:09.532Z,1007.37
2019-04-21T05:35:09.526Z,1007.41
2019-04-21T05:36:11.398Z,1007.36
2019-04-21T05:37:11.038Z,1007.36
2019-04-21T05:38:10.258Z,1007.33
2019-04-21T05:39:02.520Z,1007.31
2019-04-21T05:40:00.602Z,1007.35
2019-04-21T05:41:02.433Z,1007.30
2019-04-21T05:41:53.800Z,1007.33
2019-04-21T05:43:14.100Z,1007.32
2019-04-21T05:44:09.602Z,1007.39
2019-04-21T05:45:21.125Z,1007.33
2019-04-21T05:46:14.206Z,1007.28
2019-04-21T05:47:22.130Z,1007.39
2019-04-21T05:48:19.690Z,1007.49
2019-04-21T05:49:10.582Z,1007.53
2019-04-21T05:50:06.495Z,1007.54
2019-04-21T05:51:05.556Z,1007.51
2019-04-21T05:52:06.516Z,1007.48
2019-04-21T05:53:19.288Z,1007.50
2019-04-21T05:54:15.189Z,1007.54
2019-04-21T05:55:09.548Z,1007.59
2019-04-21T05:56:10.020Z,1007.61
2019-04-21T05:57:20.675Z,1007.54
2019-04-21T05:58:08.538Z,1007.59
2019-04-21T05:59:07.891Z,1007.62
2019-04-21T06:00:12.312Z,1007.63
2019-04-21T06:01:16.661Z,1007.62
2019-04-21T06:02:20.901Z,1007.67
2019-04-21T06:03:18.345Z,1007.62
2019-04-21T06:04:16.876Z,1007.69
2019-04-21T06:05:47.886Z,1007.64
2019-04-21T06:06:13.556Z,1007.64
2019-04-21T06:07:18.929Z,1007.68
2019-04-21T06:08:12.901Z,1007.70
2019-04-21T06:09:13.110Z,1007.69
2019-04-21T06:10:16.263Z,1007.58
2019-04-21T06:11:19.163Z,1007.67
2019-04-21T06:12:08.714Z,1007.67
2019-04-21T06:13:12.954Z,1007.68
2019-04-21T06:14:14.346Z,1007.69
2019-04-21T06:15:12.207Z,1007.69
2019-04-21T06:16:07.559Z,1007.63
2019-04-21T06:17:09.358Z,1007.66
2019-04-21T06:18:16.313Z,1007.67
2019-04-21T06:19:19.356Z,1007.64
2019-04-21T06:20:15.373Z,1007.68
2019-04-21T06:21:10.787Z,1007.64
2019-04-21T06:22:10.444Z,1007.69
2019-04-21T06:23:11.602Z,1007.65
2019-04-21T06:24:13.013Z,1007.68
2019-04-21T06:25:31.205Z,1007.69
2019-04-21T06:26:43.303Z,1007.73
2019-04-21T06:27:22.725Z,1007.70
2019-04-21T06:28:12.087Z,1007.68
2019-04-21T06:29:10.122Z,1007.66
2019-04-21T06:30:03.422Z,1007.67
2019-04-21T06:31:30.711Z,1007.66
2019-04-21T06:33:09.947Z,1007.69
2019-04-21T06:34:11.205Z,1007.63
2019-04-21T06:35:25.532Z,1007.64
2019-04-21T06:37:36.010Z,1007.58
2019-04-21T06:38:19.339Z,1007.62
2019-04-21T06:39:19.609Z,1007.50
2019-04-21T06:40:21.075Z,1007.45
2019-04-21T06:41:14.966Z,1007.35
2019-04-21T06:42:09.795Z,1007.22
2019-04-21T06:43:18.275Z,1007.12
2019-04-21T06:44:20.433Z,1007.19
2019-04-21T06:45:12.404Z,1007.18
2019-04-21T06:46:12.080Z,1007.11
2019-04-21T06:47:17.689Z,1007.08
2019-04-21T06:48:12.243Z,1007.01
2019-04-21T06:49:20.501Z,1007.07
2019-04-21T06:50:12.127Z,1007.09
2019-04-21T06:51:16.708Z,1007.04
2019-04-21T06:52:20.622Z,1007.09
2019-04-21T06:53:10.795Z,1007.13
2019-04-21T06:54:09.608Z,1007.13
2019-04-21T06:56:13.735Z,1007.15
2019-04-21T06:57:15.207Z,1007.23
2019-04-21T06:58:10.411Z,1007.32
2019-04-21T06:59:22.108Z,1007.41
2019-04-21T07:00:06.444Z,1007.50
2019-04-21T07:01:13.013Z,1007.58
2019-04-21T07:02:33.343Z,1007.57
2019-04-21T07:04:18.841Z,1007.60
2019-04-21T07:05:07.919Z,1007.66
2019-04-21T07:06:12.633Z,1007.64
2019-04-21T07:07:05.172Z,1007.68
2019-04-21T07:08:27.484Z,1007.72
2019-04-21T07:10:12.159Z,1007.73
2019-04-21T07:11:10.972Z,1007.75
2019-04-21T07:12:08.499Z,1007.75
2019-04-21T07:13:07.905Z,1007.75
2019-04-21T07:14:28.017Z,1007.77
2019-04-21T07:15:09.935Z,1007.76
2019-04-21T07:16:17.526Z,1007.74
2019-04-21T07:17:16.469Z,1007.71
2019-04-21T07:18:12.429Z,1007.72
2019-04-21T07:19:27.817Z,1007.71
2019-04-21T07:20:14.036Z,1007.65
2019-04-21T07:21:10.570Z,1007.60
2019-04-21T07:22:11.142Z,1007.49
2019-04-21T07:23:09.407Z,1007.30
2019-04-21T07:24:13.891Z,1007.11
2019-04-21T07:25:09.276Z,1006.99
2019-04-21T07:26:10.565Z,1007.00
2019-04-21T07:27:13.070Z,1006.95
2019-04-21T07:28:15.575Z,1006.90
2019-04-21T07:29:12.239Z,1006.99
2019-04-21T07:30:25.631Z,1006.96
2019-04-21T07:31:12.755Z,1006.98
2019-04-21T07:32:12.741Z,1006.90
2019-04-21T07:33:37.395Z,1006.93
2019-04-21T07:34:27.428Z,1006.94
2019-04-21T07:35:08.435Z,1006.89
2019-04-21T07:36:16.318Z,1006.90
2019-04-21T07:37:06.578Z,1006.98
2019-04-21T07:38:08.327Z,1007.10
2019-04-21T07:39:06.013Z,1007.23
2019-04-21T07:40:06.164Z,1007.40
2019-04-21T07:41:02.293Z,1007.49
2019-04-21T07:42:04.897Z,1007.60
2019-04-21T07:43:03.863Z,1007.56
2019-04-21T07:43:59.193Z,1007.53
2019-04-21T07:45:02.385Z,1007.53
2019-04-21T07:46:02.707Z,1007.51
2019-04-21T07:47:05.030Z,1007.52
2019-04-21T07:48:11.950Z,1007.45
2019-04-21T07:49:08.050Z,1007.43
2019-04-21T07:50:07.327Z,1007.33
2019-04-21T07:51:14.028Z,1007.17
2019-04-21T07:52:16.073Z,1006.98
2019-04-21T07:53:16.419Z,1006.90
2019-04-21T07:54:13.976Z,1006.84
2019-04-21T07:55:20.021Z,1006.85
2019-04-21T07:55:51.001Z,1006.77
2019-04-21T07:56:59.524Z,1006.85
2019-04-21T07:58:24.429Z,1006.82
2019-04-21T07:59:15.242Z,1006.80
2019-04-21T08:01:12.400Z,1006.76
2019-04-21T08:02:08.844Z,1006.74
2019-04-21T08:03:09.372Z,1006.78
2019-04-21T08:04:15.272Z,1006.76
2019-04-21T08:06:18.730Z,1006.72
2019-04-21T08:07:05.143Z,1006.71
2019-04-21T08:07:59.605Z,1006.77
2019-04-21T08:09:08.853Z,1006.72
2019-04-21T08:10:03.479Z,1006.68
2019-04-21T08:11:07.341Z,1006.75
2019-04-21T08:12:04.088Z,1006.75
2019-04-21T08:13:17.321Z,1006.75
2019-04-21T08:14:24.195Z,1006.77
2019-04-21T08:15:16.933Z,1006.74
2019-04-21T08:17:11.023Z,1006.97
2019-04-21T08:18:07.081Z,1007.16
2019-04-21T08:19:08.553Z,1007.24
2019-04-21T08:20:09.286Z,1007.27
2019-04-21T08:21:06.089Z,1007.31
2019-04-21T08:22:11.039Z,1007.32
2019-04-21T08:23:04.935Z,1007.35
2019-04-21T08:24:12.911Z,1007.31
2019-04-21T08:25:08.804Z,1007.30
2019-04-21T08:27:13.288Z,1007.33
2019-04-21T08:28:05.006Z,1007.34
2019-04-21T08:29:15.882Z,1007.29
2019-04-21T08:30:05.019Z,1007.31
2019-04-21T08:31:11.493Z,1007.29
2019-04-21T08:32:07.837Z,1007.25
2019-04-21T08:34:08.368Z,1007.27
2019-04-21T08:35:35.836Z,1007.26
2019-04-21T08:36:25.046Z,1007.24
2019-04-21T08:37:04.191Z,1007.23
2019-04-21T08:38:11.369Z,1007.23
2019-04-21T08:39:08.700Z,1007.27
2019-04-21T08:40:09.631Z,1007.20
2019-04-21T08:41:08.656Z,1007.23
2019-04-21T08:42:06.560Z,1007.24
2019-04-21T08:42:59.819Z,1007.26
2019-04-21T08:44:01.661Z,1007.21
2019-04-21T08:45:11.071Z,1007.26
2019-04-21T08:46:06.811Z,1007.24
2019-04-21T08:47:09.301Z,1007.23
2019-04-21T08:48:04.584Z,1007.21
2019-04-21T08:49:08.081Z,1007.22
2019-04-21T08:50:09.625Z,1007.26
2019-04-21T08:51:24.531Z,1007.15
2019-04-21T08:52:15.259Z,1007.15
2019-04-21T08:53:07.859Z,1007.19
2019-04-21T08:54:13.894Z,1007.23
2019-04-21T08:55:16.391Z,1007.22
2019-04-21T08:56:12.285Z,1007.20
2019-04-21T08:57:11.600Z,1007.12
2019-04-21T08:58:15.217Z,1007.08
2019-04-21T08:59:12.704Z,1007.11
2019-04-21T09:00:18.603Z,1007.13
2019-04-21T09:01:10.830Z,1007.08
2019-04-21T09:02:08.949Z,1007.07
2019-04-21T09:03:06.448Z,1007.06
2019-04-21T09:04:07.552Z,1007.03
2019-04-21T09:05:04.598Z,1007.04
2019-04-21T09:06:12.637Z,1007.08
2019-04-21T09:07:12.928Z,1007.04
2019-04-21T09:08:03.813Z,1007.02
2019-04-21T09:09:08.142Z,1007.03
2019-04-21T09:10:06.843Z,1007.01
2019-04-21T09:11:05.666Z,1006.99
2019-04-21T09:12:04.650Z,1007.00
2019-04-21T09:13:04.276Z,1006.94
2019-04-21T09:14:07.833Z,1006.90
2019-04-21T09:15:08.051Z,1006.90
2019-04-21T09:15:58.011Z,1006.91
2019-04-21T09:17:00.464Z,1006.87
2019-04-21T09:18:01.803Z,1006.89
2019-04-21T09:18:57.028Z,1006.84
2019-04-21T09:20:13.462Z,1006.87
2019-04-21T09:21:04.566Z,1006.91
2019-04-21T09:22:05.752Z,1006.89
2019-04-21T09:23:10.994Z,1006.86
2019-04-21T09:24:09.396Z,1006.85
2019-04-21T09:25:01.504Z,1006.81
2019-04-21T09:26:05.490Z,1006.82
2019-04-21T09:27:06.954Z,1006.78
2019-04-21T09:28:05.582Z,1006.82
2019-04-21T09:28:57.337Z,1006.81
2019-04-21T09:29:52.339Z,1006.82
2019-04-21T09:30:52.484Z,1006.82
2019-04-21T09:31:48.008Z,1006.81
2019-04-21T09:32:49.480Z,1006.76
2019-04-21T09:33:50.841Z,1006.77
2019-04-21T09:34:47.458Z,1006.73
2019-04-21T09:35:50.073Z,1006.68
2019-04-21T09:36:51.237Z,1006.70
2019-04-21T09:37:53.441Z,1006.67
2019-04-21T09:38:57.673Z,1006.64
2019-04-21T09:39:50.306Z,1006.60
2019-04-21T09:40:49.661Z,1006.62
2019-04-21T09:41:49.969Z,1006.63
2019-04-21T09:42:54.158Z,1006.62
2019-04-21T09:43:50.642Z,1006.57
2019-04-21T09:44:48.267Z,1006.53
2019-04-21T09:45:45.725Z,1006.51
2019-04-21T09:46:50.724Z,1006.53
2019-04-21T09:47:55.687Z,1006.51
2019-04-21T09:48:53.622Z,1006.55
2019-04-21T09:49:45.725Z,1006.53
2019-04-21T09:50:45.832Z,1006.52
2019-04-21T09:51:45.830Z,1006.45
2019-04-21T09:52:52.186Z,1006.46
2019-04-21T09:53:55.792Z,1006.43
2019-04-21T09:54:55.220Z,1006.48
2019-04-21T09:55:53.669Z,1006.45
2019-04-21T09:56:53.794Z,1006.40
2019-04-21T09:57:52.151Z,1006.40
2019-04-21T09:58:49.807Z,1006.34
2019-04-21T09:59:53.861Z,1006.30
2019-04-21T10:00:59.155Z,1006.30
2019-04-21T10:02:01.517Z,1006.31
2019-04-21T10:02:57.942Z,1006.28
2019-04-21T10:03:48.622Z,1006.27
2019-04-21T10:04:46.199Z,1006.27
2019-04-21T10:05:45.230Z,1006.24
2019-04-21T10:06:45.268Z,1006.27
2019-04-21T10:07:44.555Z,1006.27
2019-04-21T10:08:44.695Z,1006.23
2019-04-21T10:09:45.645Z,1006.22
2019-04-21T10:10:44.578Z,1006.23
2019-04-21T10:11:45.850Z,1006.16
2019-04-21T10:12:45.442Z,1006.18
2019-04-21T10:13:44.516Z,1006.13
2019-04-21T10:14:45.202Z,1006.11
2019-04-21T10:15:44.505Z,1006.10
2019-04-21T10:16:45.075Z,1006.04
2019-04-21T10:17:44.482Z,1006.10
2019-04-21T10:18:44.493Z,1006.06
2019-04-21T10:19:44.450Z,1006.05
2019-04-21T10:20:44.858Z,1005.98
2019-04-21T10:21:44.535Z,1006.01
2019-04-21T10:22:44.794Z,1005.96
2019-04-21T10:23:45.464Z,1005.90
2019-04-21T10:24:44.649Z,1005.85
2019-04-21T10:25:44.399Z,1005.84
2019-04-21T10:26:45.183Z,1005.87
2019-04-21T10:27:45.215Z,1005.85
2019-04-21T10:28:44.397Z,1005.80
2019-04-21T10:29:45.383Z,1005.78
2019-04-21T10:30:44.791Z,1005.81
2019-04-21T10:31:44.959Z,1005.81
2019-04-21T10:32:44.369Z,1005.74
2019-04-21T10:33:44.343Z,1005.81
2019-04-21T10:34:45.265Z,1005.73
2019-04-21T10:35:44.339Z,1005.71
2019-04-21T10:36:44.895Z,1005.66
2019-04-21T10:37:53.720Z,1005.63
2019-04-21T10:38:51.294Z,1005.53
2019-04-21T10:39:45.430Z,1005.44
2019-04-21T10:40:45.260Z,1005.31
2019-04-21T10:41:45.660Z,1005.12
2019-04-21T10:42:44.253Z,1005.03
2019-04-21T10:43:45.202Z,1005.04
2019-04-21T10:44:45.168Z,1005.01
2019-04-21T10:45:44.244Z,1004.99
2019-04-21T10:46:47.360Z,1004.95
2019-04-21T10:47:45.038Z,1004.93
2019-04-21T10:48:44.209Z,1004.92
2019-04-21T10:49:44.790Z,1004.92
2019-04-21T10:50:45.216Z,1004.86
2019-04-21T10:51:44.160Z,1004.85
2019-04-21T10:52:44.894Z,1004.85
2019-04-21T10:53:45.834Z,1004.86
2019-04-21T10:55:06.824Z,1004.83
2019-04-21T10:56:00.393Z,1004.84
2019-04-21T10:56:46.139Z,1004.76
2019-04-21T10:57:44.371Z,1004.73
2019-04-21T10:58:44.563Z,1004.66
2019-04-21T10:59:47.970Z,1004.73
2019-04-21T11:00:46.184Z,1004.67
2019-04-21T11:01:45.186Z,1004.60
2019-04-21T11:02:44.052Z,1004.62
2019-04-21T11:03:44.750Z,1004.56
2019-04-21T11:04:45.362Z,1004.62
2019-04-21T11:05:45.008Z,1004.61
2019-04-21T11:06:44.330Z,1004.51
2019-04-21T11:07:55.397Z,1004.58
2019-04-21T11:08:48.852Z,1004.54
2019-04-21T11:09:46.300Z,1004.46
2019-04-21T11:10:43.968Z,1004.53
2019-04-21T11:11:46.503Z,1004.50
2019-04-21T11:12:44.810Z,1004.49
2019-04-21T11:13:44.299Z,1004.47
2019-04-21T11:14:45.164Z,1004.42
2019-04-21T11:15:45.362Z,1004.42
2019-04-21T11:16:45.945Z,1004.42
2019-04-21T11:17:45.161Z,1004.41
2019-04-21T11:18:44.138Z,1004.38
2019-04-21T11:19:43.899Z,1004.39
2019-04-21T11:20:44.763Z,1004.34
2019-04-21T11:21:44.950Z,1004.41
2019-04-21T11:22:43.949Z,1004.33
2019-04-21T11:23:44.018Z,1004.31
2019-04-21T11:24:44.990Z,1004.32
2019-04-21T11:25:44.025Z,1004.26
2019-04-21T11:26:43.815Z,1004.22
2019-04-21T11:27:44.905Z,1004.31
2019-04-21T11:28:45.120Z,1004.27
2019-04-21T11:29:43.791Z,1004.24
2019-04-21T11:30:44.530Z,1004.24
2019-04-21T11:31:45.151Z,1004.17
2019-04-21T11:32:46.296Z,1004.21
2019-04-21T11:33:45.097Z,1004.17
2019-04-21T11:34:45.223Z,1004.17
2019-04-21T11:35:43.763Z,1004.18
2019-04-21T11:36:43.969Z,1004.12
2019-04-21T11:37:44.076Z,1004.16
2019-04-21T11:38:58.469Z,1004.19
2019-04-21T11:39:52.134Z,1004.10
2019-04-21T11:40:45.595Z,1004.14
2019-04-21T11:41:43.667Z,1004.10
2019-04-21T11:42:43.938Z,1004.07
2019-04-21T11:43:43.620Z,1004.04
2019-04-21T11:44:44.945Z,1004.02
2019-04-21T11:45:44.382Z,1004.01
2019-04-21T11:46:44.540Z,1003.99
2019-04-21T11:47:43.583Z,1003.97
2019-04-21T11:48:44.073Z,1003.98
2019-04-21T11:49:43.552Z,1004.01
2019-04-21T11:50:43.567Z,1004.03
2019-04-21T11:51:44.903Z,1003.99
2019-04-21T11:52:43.541Z,1003.94
2019-04-21T11:53:43.513Z,1003.94
2019-04-21T11:54:44.610Z,1003.90
2019-04-21T11:55:46.431Z,1003.89
2019-04-21T11:56:43.505Z,1003.89
2019-04-21T11:57:46.951Z,1003.91
2019-04-21T11:58:45.737Z,1003.82
2019-04-21T11:59:43.836Z,1003.82
2019-04-21T12:00:43.437Z,1003.79
2019-04-21T12:01:43.611Z,1003.79
2019-04-21T12:02:43.748Z,1003.81
2019-04-21T12:03:43.411Z,1003.79
2019-04-21T12:04:43.587Z,1003.78
2019-04-21T12:05:43.651Z,1003.77
2019-04-21T12:06:47.111Z,1003.72
2019-04-21T12:07:45.135Z,1003.73
2019-04-21T12:08:47.677Z,1003.71
2019-04-21T12:09:45.669Z,1003.75
2019-04-21T12:10:43.334Z,1003.64
2019-04-21T12:11:43.403Z,1003.68
2019-04-21T12:12:43.395Z,1003.64
2019-04-21T12:13:43.315Z,1003.67
2019-04-21T12:14:43.917Z,1003.64
2019-04-21T12:15:43.276Z,1003.61
2019-04-21T12:16:43.400Z,1003.61
2019-04-21T12:17:43.961Z,1003.57
2019-04-21T12:18:43.253Z,1003.60
2019-04-21T12:19:43.237Z,1003.53
2019-04-21T12:20:43.222Z,1003.54
2019-04-21T12:21:53.273Z,1003.51
2019-04-21T12:22:45.314Z,1003.57
2019-04-21T12:23:43.195Z,1003.46
2019-04-21T12:24:43.185Z,1003.49
2019-04-21T12:25:43.168Z,1003.41
2019-04-21T12:26:44.472Z,1003.42
2019-04-21T12:27:43.866Z,1003.38
2019-04-21T12:28:43.940Z,1003.42
2019-04-21T12:29:44.030Z,1003.42
2019-04-21T12:30:43.121Z,1003.40
2019-04-21T12:31:43.477Z,1003.39
2019-04-21T12:32:44.261Z,1003.43
2019-04-21T12:33:43.640Z,1003.39
2019-04-21T12:34:43.776Z,1003.31
2019-04-21T12:35:43.885Z,1003.34
2019-04-21T12:36:43.724Z,1003.28
2019-04-21T12:37:43.046Z,1003.25
2019-04-21T12:38:48.971Z,1003.29
2019-04-21T12:39:45.046Z,1003.17
2019-04-21T12:40:44.281Z,1003.20
2019-04-21T12:41:43.010Z,1003.19
2019-04-21T12:42:43.789Z,1003.24
2019-04-21T12:43:42.984Z,1003.22
2019-04-21T12:44:43.430Z,1003.16
2019-04-21T12:45:44.011Z,1003.11
2019-04-21T12:46:43.614Z,1003.12
2019-04-21T12:47:43.999Z,1003.09
2019-04-21T12:48:44.142Z,1003.07
2019-04-21T12:49:43.696Z,1003.04
2019-04-21T12:50:43.733Z,1003.08
2019-04-21T12:51:44.083Z,1003.07
2019-04-21T12:52:42.905Z,1003.05
2019-04-21T12:53:43.499Z,1003.04